sensor_id;sensor_type;location;lat;lon;timestamp;pressure;altitude;pressure_sealevel;temperature;humidity
71194;BME280;58903;47.210;8.618;2024-03-17T00:02:01;94828.69;;;23.05;49.43
71194;BME280;58903;47.210;8.618;2024-03-17T00:10:54;94832.16;;;23.00;49.06
71194;BME280;58903;47.210;8.618;2024-03-17T00:13:24;94830.63;;;22.99;49.45
71194;BME280;58903;47.210;8.618;2024-03-17T00:16:13;94827.63;;;22.97;49.17
71194;BME280;58903;47.210;8.618;2024-03-17T00:18:51;94829.13;;;22.98;49.70
71194;BME280;58903;47.210;8.618;2024-03-17T00:21:17;94818.88;;;22.99;48.85
71194;BME280;58903;47.210;8.618;2024-03-17T00:24:13;94822.38;;;22.99;49.36
71194;BME280;58903;47.210;8.618;2024-03-17T00:27:07;94823.66;;;22.98;49.51
71194;BME280;58903;47.210;8.618;2024-03-17T00:29:33;94813.09;;;22.91;48.98
71194;BME280;58903;47.210;8.618;2024-03-17T00:32:01;94819.13;;;22.95;49.27
71194;BME280;58903;47.210;8.618;2024-03-17T00:34:27;94812.13;;;22.94;49.30
71194;BME280;58903;47.210;8.618;2024-03-17T00:37:03;94818.88;;;22.99;49.13
71194;BME280;58903;47.210;8.618;2024-03-17T00:39:49;94813.91;;;22.97;48.94
71194;BME280;58903;47.210;8.618;2024-03-17T00:42:26;94812.66;;;22.98;49.04
71194;BME280;58903;47.210;8.618;2024-03-17T00:45:23;94804.44;;;22.98;49.42
71194;BME280;58903;47.210;8.618;2024-03-17T00:47:49;94800.19;;;22.97;49.06
71194;BME280;58903;47.210;8.618;2024-03-17T00:50:18;94789.97;;;22.98;48.99
71194;BME280;58903;47.210;8.618;2024-03-17T00:52:45;94791.94;;;22.97;49.06
71194;BME280;58903;47.210;8.618;2024-03-17T00:55:19;94790.19;;;22.94;49.11
71194;BME280;58903;47.210;8.618;2024-03-17T00:57:56;94792.44;;;22.96;49.51
71194;BME280;58903;47.210;8.618;2024-03-17T01:00:27;94786.69;;;22.94;49.23
71194;BME280;58903;47.210;8.618;2024-03-17T01:02:55;94785.44;;;22.95;49.25
71194;BME280;58903;47.210;8.618;2024-03-17T01:05:30;94788.94;;;22.95;48.95
71194;BME280;58903;47.210;8.618;2024-03-17T01:08:06;94789.22;;;22.97;49.43
71194;BME280;58903;47.210;8.618;2024-03-17T01:10:43;94787.72;;;22.96;49.10
71194;BME280;58903;47.210;8.618;2024-03-17T01:13:10;94775.50;;;22.97;49.09
71194;BME280;58903;47.210;8.618;2024-03-17T01:15:44;94780.47;;;22.99;49.31
71194;BME280;58903;47.210;8.618;2024-03-17T01:18:29;94763.22;;;22.93;48.97
71194;BME280;58903;47.210;8.618;2024-03-17T01:21:04;94763.03;;;22.96;48.91
71194;BME280;58903;47.210;8.618;2024-03-17T01:23:39;94759.53;;;22.96;49.39
71194;BME280;58903;47.210;8.618;2024-03-17T01:26:07;94759.25;;;22.94;49.31
71194;BME280;58903;47.210;8.618;2024-03-17T01:28:33;94756.50;;;22.94;49.02
71194;BME280;58903;47.210;8.618;2024-03-17T01:31:05;94750.28;;;22.93;48.81
71194;BME280;58903;47.210;8.618;2024-03-17T01:33:31;94748.56;;;22.96;48.97
71194;BME280;58903;47.210;8.618;2024-03-17T01:35:56;94739.31;;;22.93;48.99
71194;BME280;58903;47.210;8.618;2024-03-17T01:38:25;94740.31;;;22.96;49.10
71194;BME280;58903;47.210;8.618;2024-03-17T01:40:59;94737.31;;;22.94;48.98
71194;BME280;58903;47.210;8.618;2024-03-17T01:43:33;94736.56;;;22.93;49.15
71194;BME280;58903;47.210;8.618;2024-03-17T01:46:05;94729.56;;;22.92;48.80
71194;BME280;58903;47.210;8.618;2024-03-17T01:48:38;94724.78;;;22.87;49.26
71194;BME280;58903;47.210;8.618;2024-03-17T01:51:08;94723.06;;;22.90;48.92
71194;BME280;58903;47.210;8.618;2024-03-17T01:53:37;94725.06;;;22.89;49.14
71194;BME280;58903;47.210;8.618;2024-03-17T01:56:16;94719.56;;;22.89;48.75
71194;BME280;58903;47.210;8.618;2024-03-17T01:58:54;94716.34;;;22.91;49.20
71194;BME280;58903;47.210;8.618;2024-03-17T02:01:27;94715.56;;;22.90;49.30
71194;BME280;58903;47.210;8.618;2024-03-17T02:04:05;94714.84;;;22.90;49.10
71194;BME280;58903;47.210;8.618;2024-03-17T02:06:37;94716.34;;;22.91;48.95
71194;BME280;58903;47.210;8.618;2024-03-17T02:09:03;94709.56;;;22.86;49.52
71194;BME280;58903;47.210;8.618;2024-03-17T02:11:32;94707.84;;;22.89;49.19
71194;BME280;58903;47.210;8.618;2024-03-17T02:14:01;94705.84;;;22.89;48.89
71194;BME280;58903;47.210;8.618;2024-03-17T02:16:29;94701.59;;;22.88;48.83
71194;BME280;58903;47.210;8.618;2024-03-17T02:18:56;94706.81;;;22.86;48.96
71194;BME280;58903;47.210;8.618;2024-03-17T02:21:27;94695.84;;;22.86;49.01
71194;BME280;58903;47.210;8.618;2024-03-17T02:23:54;94697.84;;;22.86;49.23
71194;BME280;58903;47.210;8.618;2024-03-17T02:26:30;94696.34;;;22.85;48.88
71194;BME280;58903;47.210;8.618;2024-03-17T02:28:56;94695.84;;;22.86;49.13
71194;BME280;58903;47.210;8.618;2024-03-17T02:31:22;94696.59;;;22.87;48.89
71194;BME280;58903;47.210;8.618;2024-03-17T02:33:48;94690.63;;;22.88;49.00
71194;BME280;58903;47.210;8.618;2024-03-17T02:36:14;94686.88;;;22.86;49.25
71194;BME280;58903;47.210;8.618;2024-03-17T02:39:08;94686.41;;;22.87;48.75
71194;BME280;58903;47.210;8.618;2024-03-17T02:41:54;94680.66;;;22.85;49.09
71194;BME280;58903;47.210;8.618;2024-03-17T02:44:40;94677.91;;;22.85;48.48
71194;BME280;58903;47.210;8.618;2024-03-17T02:47:19;94681.09;;;22.84;48.95
71194;BME280;58903;47.210;8.618;2024-03-17T02:49:46;94680.13;;;22.81;49.03
71194;BME280;58903;47.210;8.618;2024-03-17T02:52:18;94684.59;;;22.84;48.64
71194;BME280;58903;47.210;8.618;2024-03-17T02:54:54;94687.09;;;22.82;48.89
71194;BME280;58903;47.210;8.618;2024-03-17T02:57:23;94685.09;;;22.83;49.23
71194;BME280;58903;47.210;8.618;2024-03-17T02:59:55;94686.31;;;22.82;48.95
71194;BME280;58903;47.210;8.618;2024-03-17T03:02:43;94675.84;;;22.80;48.90
71194;BME280;58903;47.210;8.618;2024-03-17T03:08:41;94667.88;;;22.82;48.94
71194;BME280;58903;47.210;8.618;2024-03-17T03:11:16;94671.88;;;22.81;49.00
71194;BME280;58903;47.210;8.618;2024-03-17T03:13:43;94664.34;;;22.76;48.74
71194;BME280;58903;47.210;8.618;2024-03-17T03:16:25;94664.88;;;22.80;48.72
71194;BME280;58903;47.210;8.618;2024-03-17T03:18:52;94663.84;;;22.78;48.68
71194;BME280;58903;47.210;8.618;2024-03-17T03:21:46;94667.34;;;22.78;48.84
71194;BME280;58903;47.210;8.618;2024-03-17T03:24:19;94646.88;;;22.74;49.15
71194;BME280;58903;47.210;8.618;2024-03-17T03:26:47;94655.16;;;22.79;49.16
71194;BME280;58903;47.210;8.618;2024-03-17T03:29:16;94660.66;;;22.79;49.02
71194;BME280;58903;47.210;8.618;2024-03-17T03:31:42;94662.63;;;22.79;49.34
71194;BME280;58903;47.210;8.618;2024-03-17T03:34:12;94658.88;;;22.76;48.51
71194;BME280;58903;47.210;8.618;2024-03-17T03:36:49;94659.63;;;22.77;49.27
71194;BME280;58903;47.210;8.618;2024-03-17T03:39:50;94658.88;;;22.76;48.83
71194;BME280;58903;47.210;8.618;2024-03-17T03:42:29;94658.09;;;22.76;48.93
71194;BME280;58903;47.210;8.618;2024-03-17T03:45:02;94656.34;;;22.73;49.06
71194;BME280;58903;47.210;8.618;2024-03-17T03:47:28;94658.09;;;22.76;48.95
71194;BME280;58903;47.210;8.618;2024-03-17T03:50:02;94661.59;;;22.76;48.78
71194;BME280;58903;47.210;8.618;2024-03-17T03:52:32;94643.88;;;22.72;48.62
71194;BME280;58903;47.210;8.618;2024-03-17T03:55:06;94649.63;;;22.74;48.67
71194;BME280;58903;47.210;8.618;2024-03-17T03:57:41;94663.31;;;22.74;49.11
71194;BME280;58903;47.210;8.618;2024-03-17T04:00:28;94654.59;;;22.75;49.17
71194;BME280;58903;47.210;8.618;2024-03-17T04:02:59;94652.59;;;22.70;49.03
71194;BME280;58903;47.210;8.618;2024-03-17T04:06:00;94650.38;;;22.74;48.75
71194;BME280;58903;47.210;8.618;2024-03-17T04:08:27;94649.63;;;22.74;48.66
71194;BME280;58903;47.210;8.618;2024-03-17T04:11:06;94654.34;;;22.73;48.83
71194;BME280;58903;47.210;8.618;2024-03-17T04:17:05;94670.06;;;22.73;49.07
71194;BME280;58903;47.210;8.618;2024-03-17T04:19:54;94665.81;;;22.72;49.24
71194;BME280;58903;47.210;8.618;2024-03-17T04:22:27;94661.34;;;22.74;48.98
71194;BME280;58903;47.210;8.618;2024-03-17T04:28:19;94651.06;;;22.69;49.08
71194;BME280;58903;47.210;8.618;2024-03-17T04:30:45;94644.78;;;22.63;49.24
71194;BME280;58903;47.210;8.618;2024-03-17T04:33:12;94645.06;;;22.65;49.27
71194;BME280;58903;47.210;8.618;2024-03-17T04:35:39;94646.28;;;22.64;48.91
71194;BME280;58903;47.210;8.618;2024-03-17T04:38:09;94649.78;;;22.65;49.01
71194;BME280;58903;47.210;8.618;2024-03-17T04:41:02;94649.78;;;22.65;49.18
71194;BME280;58903;47.210;8.618;2024-03-17T04:43:43;94654.50;;;22.64;49.27
71194;BME280;58903;47.210;8.618;2024-03-17T04:46:30;94652.00;;;22.61;49.15
71194;BME280;58903;47.210;8.618;2024-03-17T04:49:09;94647.75;;;22.60;48.98
71194;BME280;58903;47.210;8.618;2024-03-17T04:51:49;94650.28;;;22.63;49.19
71194;BME280;58903;47.210;8.618;2024-03-17T04:54:17;94655.50;;;22.61;48.85
71194;BME280;58903;47.210;8.618;2024-03-17T04:57:02;94661.25;;;22.63;49.04
71194;BME280;58903;47.210;8.618;2024-03-17T04:59:28;94662.72;;;22.64;49.28
71194;BME280;58903;47.210;8.618;2024-03-17T05:01:55;94660.97;;;22.61;49.03
71194;BME280;58903;47.210;8.618;2024-03-17T05:04:28;94658.22;;;22.61;48.79
71194;BME280;58903;47.210;8.618;2024-03-17T05:07:03;94658.22;;;22.61;49.26
71194;BME280;58903;47.210;8.618;2024-03-17T05:09:49;94654.94;;;22.57;49.19
71194;BME280;58903;47.210;8.618;2024-03-17T05:12:35;94658.22;;;22.61;49.53
71194;BME280;58903;47.210;8.618;2024-03-17T05:15:28;94659.00;;;22.62;49.26
71194;BME280;58903;47.210;8.618;2024-03-17T05:17:54;94661.25;;;22.63;49.12
71194;BME280;58903;47.210;8.618;2024-03-17T05:20:31;94663.72;;;22.61;49.38
71194;BME280;58903;47.210;8.618;2024-03-17T05:23:01;94648.19;;;22.58;49.05
71194;BME280;58903;47.210;8.618;2024-03-17T05:25:54;94661.25;;;22.63;48.92
71194;BME280;58903;47.210;8.618;2024-03-17T05:28:29;94667.69;;;22.60;49.11
71194;BME280;58903;47.210;8.618;2024-03-17T05:30:55;94668.97;;;22.65;49.12
71194;BME280;58903;47.210;8.618;2024-03-17T05:33:23;94668.44;;;22.61;48.79
71194;BME280;58903;47.210;8.618;2024-03-17T05:35:57;94662.72;;;22.64;49.10
71194;BME280;58903;47.210;8.618;2024-03-17T05:38:35;94671.78;;;22.70;48.96
71194;BME280;58903;47.210;8.618;2024-03-17T05:41:39;94667.78;;;22.71;49.15
71194;BME280;58903;47.210;8.618;2024-03-17T05:44:32;94676.28;;;22.73;48.72
71194;BME280;58903;47.210;8.618;2024-03-17T05:47:26;94677.78;;;22.74;48.49
71194;BME280;58903;47.210;8.618;2024-03-17T05:50:00;94676.28;;;22.73;49.06
71194;BME280;58903;47.210;8.618;2024-03-17T05:52:45;94674.56;;;22.76;49.11
71194;BME280;58903;47.210;8.618;2024-03-17T05:55:35;94671.06;;;22.75;48.85
71194;BME280;58903;47.210;8.618;2024-03-17T05:58:02;94672.59;;;22.76;48.62
71194;BME280;58903;47.210;8.618;2024-03-17T06:00:39;94668.59;;;22.77;48.76
71194;BME280;58903;47.210;8.618;2024-03-17T06:03:07;94659.31;;;22.69;48.89
71194;BME280;58903;47.210;8.618;2024-03-17T06:05:39;94676.53;;;22.75;49.10
71194;BME280;58903;47.210;8.618;2024-03-17T06:08:30;94691.28;;;22.78;48.72
71194;BME280;58903;47.210;8.618;2024-03-17T06:11:35;94681.06;;;22.78;48.67
71194;BME280;58903;47.210;8.618;2024-03-17T06:14:36;94683.06;;;22.78;49.10
71194;BME280;58903;47.210;8.618;2024-03-17T06:17:01;94683.81;;;22.78;48.91
71194;BME280;58903;47.210;8.618;2024-03-17T06:19:58;94690.81;;;22.79;49.01
71194;BME280;58903;47.210;8.618;2024-03-17T06:22:32;94679.84;;;22.79;49.28
71194;BME280;58903;47.210;8.618;2024-03-17T06:25:36;94687.59;;;22.81;48.69
71194;BME280;58903;47.210;8.618;2024-03-17T06:28:14;94693.81;;;22.81;48.66
71194;BME280;58903;47.210;8.618;2024-03-17T06:30:41;94691.53;;;22.80;48.74
71194;BME280;58903;47.210;8.618;2024-03-17T06:33:11;94689.34;;;22.84;48.73
71194;BME280;58903;47.210;8.618;2024-03-17T06:35:37;94690.59;;;22.83;48.93
71194;BME280;58903;47.210;8.618;2024-03-17T06:38:17;94677.38;;;22.81;48.73
71194;BME280;58903;47.210;8.618;2024-03-17T06:40:53;94683.66;;;22.87;48.84
71194;BME280;58903;47.210;8.618;2024-03-17T06:43:21;94687.88;;;22.88;49.04
71194;BME280;58903;47.210;8.618;2024-03-17T06:46:07;94678.91;;;22.88;48.68
71194;BME280;58903;47.210;8.618;2024-03-17T06:48:33;94676.19;;;22.88;48.96
71194;BME280;58903;47.210;8.618;2024-03-17T06:51:01;94676.19;;;22.88;48.76
71194;BME280;58903;47.210;8.618;2024-03-17T06:53:44;94673.16;;;22.86;48.62
71194;BME280;58903;47.210;8.618;2024-03-17T06:56:18;94676.88;;;22.83;47.91
71194;BME280;58903;47.210;8.618;2024-03-17T06:58:54;94685.34;;;22.79;48.08
71194;BME280;58903;47.210;8.618;2024-03-17T07:01:21;94686.81;;;22.80;48.15
71194;BME280;58903;47.210;8.618;2024-03-17T07:03:56;94682.84;;;22.81;48.40
71194;BME280;58903;47.210;8.618;2024-03-17T07:06:33;94679.84;;;22.79;48.26
71194;BME280;58903;47.210;8.618;2024-03-17T07:09:02;94678.84;;;22.82;48.63
71194;BME280;58903;47.210;8.618;2024-03-17T07:11:36;94685.13;;;22.88;48.42
71194;BME280;58903;47.210;8.618;2024-03-17T07:14:02;94674.44;;;22.90;49.14
71194;BME280;58903;47.210;8.618;2024-03-17T07:16:28;94676.22;;;22.93;48.78
71194;BME280;58903;47.210;8.618;2024-03-17T07:19:01;94678.72;;;22.97;49.30
71194;BME280;58903;47.210;8.618;2024-03-17T07:21:28;94672.97;;;22.95;49.35
71194;BME280;58903;47.210;8.618;2024-03-17T07:24:08;94677.75;;;23.00;49.57
71194;BME280;58903;47.210;8.618;2024-03-17T07:26:40;94680.50;;;23.00;49.61
71194;BME280;58903;47.210;8.618;2024-03-17T07:29:16;94667.75;;;22.97;49.35
71194;BME280;58903;47.210;8.618;2024-03-17T07:31:44;94676.56;;;23.06;49.72
71194;BME280;58903;47.210;8.618;2024-03-17T07:34:13;94691.50;;;23.05;48.09
71194;BME280;58903;47.210;8.618;2024-03-17T07:36:40;94687.44;;;22.95;47.67
71194;BME280;58903;47.210;8.618;2024-03-17T07:39:09;94681.97;;;22.95;49.04
71194;BME280;58903;47.210;8.618;2024-03-17T07:41:44;94681.19;;;22.95;48.92
71194;BME280;58903;47.210;8.618;2024-03-17T07:44:14;94689.50;;;23.00;49.21
71194;BME280;58903;47.210;8.618;2024-03-17T07:47:15;94685.75;;;23.03;48.85
71194;BME280;58903;47.210;8.618;2024-03-17T07:49:50;94691.50;;;23.05;49.33
71194;BME280;58903;47.210;8.618;2024-03-17T07:52:30;94689.06;;;23.07;49.15
71194;BME280;58903;47.210;8.618;2024-03-17T07:54:57;94673.56;;;23.04;49.12
71194;BME280;58903;47.210;8.618;2024-03-17T07:57:24;94685.59;;;23.12;49.07
71194;BME280;58903;47.210;8.618;2024-03-17T07:59:53;94682.38;;;23.14;49.16
71194;BME280;58903;47.210;8.618;2024-03-17T08:02:20;94686.63;;;23.15;49.35
71194;BME280;58903;47.210;8.618;2024-03-17T08:05:05;94677.41;;;23.18;49.79
71194;BME280;58903;47.210;8.618;2024-03-17T08:07:32;94681.19;;;23.20;49.22
71194;BME280;58903;47.210;8.618;2024-03-17T08:10:09;94680.41;;;23.20;49.14
71194;BME280;58903;47.210;8.618;2024-03-17T08:12:35;94676.91;;;23.19;49.36
71194;BME280;58903;47.210;8.618;2024-03-17T08:15:04;94682.66;;;23.21;49.39
71194;BME280;58903;47.210;8.618;2024-03-17T08:17:30;94678.44;;;23.20;48.92
71194;BME280;58903;47.210;8.618;2024-03-17T08:19:58;94678.44;;;23.20;49.09
71194;BME280;58903;47.210;8.618;2024-03-17T08:22:53;94679.94;;;23.21;49.06
71194;BME280;58903;47.210;8.618;2024-03-17T08:25:21;94675.97;;;23.22;48.58
71194;BME280;58903;47.210;8.618;2024-03-17T08:27:49;94684.19;;;23.22;48.84
71194;BME280;58903;47.210;8.618;2024-03-17T08:30:15;94678.69;;;23.22;48.65
71194;BME280;58903;47.210;8.618;2024-03-17T08:32:41;94666.97;;;23.22;49.04
71194;BME280;58903;47.210;8.618;2024-03-17T08:35:07;94665.72;;;23.23;48.67
71194;BME280;58903;47.210;8.618;2024-03-17T08:37:43;94669.47;;;23.25;48.63
71194;BME280;58903;47.210;8.618;2024-03-17T08:40:25;94662.69;;;23.21;48.45
71194;BME280;58903;47.210;8.618;2024-03-17T08:43:19;94667.50;;;23.26;48.26
71194;BME280;58903;47.210;8.618;2024-03-17T08:45:59;94673.50;;;23.30;48.54
71194;BME280;58903;47.210;8.618;2024-03-17T08:48:49;94666.78;;;23.31;48.30
71194;BME280;58903;47.210;8.618;2024-03-17T08:51:34;94664.78;;;23.32;48.90
71194;BME280;58903;47.210;8.618;2024-03-17T08:54:02;94669.03;;;23.33;48.19
71194;BME280;58903;47.210;8.618;2024-03-17T08:56:45;94668.28;;;23.32;48.22
71194;BME280;58903;47.210;8.618;2024-03-17T08:59:30;94673.31;;;23.34;47.77
71194;BME280;58903;47.210;8.618;2024-03-17T09:02:14;94676.31;;;23.36;47.61
71194;BME280;58903;47.210;8.618;2024-03-17T09:04:41;94679.81;;;23.36;47.89
71194;BME280;58903;47.210;8.618;2024-03-17T09:07:09;94675.84;;;23.37;47.49
71194;BME280;58903;47.210;8.618;2024-03-17T09:09:51;94685.56;;;23.38;47.91
71194;BME280;58903;47.210;8.618;2024-03-17T09:12:19;94680.81;;;23.39;47.69
71194;BME280;58903;47.210;8.618;2024-03-17T09:14:55;94682.81;;;23.38;47.53
71194;BME280;58903;47.210;8.618;2024-03-17T09:17:54;94684.59;;;23.41;47.88
71194;BME280;58903;47.210;8.618;2024-03-17T09:20:34;94678.34;;;23.41;47.34
71194;BME280;58903;47.210;8.618;2024-03-17T09:23:26;94671.34;;;23.40;47.62
71194;BME280;58903;47.210;8.618;2024-03-17T09:26:07;94669.09;;;23.38;47.62
71194;BME280;58903;47.210;8.618;2024-03-17T09:28:38;94672.38;;;23.42;47.73
71194;BME280;58903;47.210;8.618;2024-03-17T09:31:06;94678.84;;;23.45;48.14
71194;BME280;58903;47.210;8.618;2024-03-17T09:33:35;94667.88;;;23.45;48.02
71194;BME280;58903;47.210;8.618;2024-03-17T09:36:09;94667.88;;;23.45;48.29
71194;BME280;58903;47.210;8.618;2024-03-17T09:38:44;94661.66;;;23.44;47.94
71194;BME280;58903;47.210;8.618;2024-03-17T09:41:46;94662.38;;;23.45;48.62
71194;BME280;58903;47.210;8.618;2024-03-17T09:44:13;94669.91;;;23.44;48.22
71194;BME280;58903;47.210;8.618;2024-03-17T09:46:40;94660.16;;;23.43;48.32
71194;BME280;58903;47.210;8.618;2024-03-17T09:49:45;94660.91;;;23.44;48.65
71194;BME280;58903;47.210;8.618;2024-03-17T09:52:25;94657.66;;;23.45;48.14
71194;BME280;58903;47.210;8.618;2024-03-17T09:55:27;94663.41;;;23.47;48.84
71194;BME280;58903;47.210;8.618;2024-03-17T10:01:52;94664.44;;;23.50;49.01
71194;BME280;58903;47.210;8.618;2024-03-17T10:04:40;94663.19;;;23.51;48.51
71194;BME280;58903;47.210;8.618;2024-03-17T10:07:07;94664.44;;;23.50;49.14
71194;BME280;58903;47.210;8.618;2024-03-17T10:09:52;94658.94;;;23.50;49.15
71194;BME280;58903;47.210;8.618;2024-03-17T10:12:50;94660.72;;;23.53;48.63
71194;BME280;58903;47.210;8.618;2024-03-17T10:15:29;94655.72;;;23.57;48.66
71194;BME280;58903;47.210;8.618;2024-03-17T10:17:59;94656.97;;;23.56;49.11
71194;BME280;58903;47.210;8.618;2024-03-17T10:20:51;94659.25;;;23.57;49.28
71194;BME280;58903;47.210;8.618;2024-03-17T10:23:22;94659.50;;;23.59;49.35
71194;BME280;58903;47.210;8.618;2024-03-17T10:26:13;94660.47;;;23.56;49.22
71194;BME280;58903;47.210;8.618;2024-03-17T10:28:44;94664.47;;;23.55;48.90
71194;BME280;58903;47.210;8.618;2024-03-17T10:31:12;94661.44;;;23.53;49.31
71194;BME280;58903;47.210;8.618;2024-03-17T10:33:38;94667.94;;;23.56;49.65
71194;BME280;58903;47.210;8.618;2024-03-17T10:36:17;94667.75;;;23.59;49.63
71194;BME280;58903;47.210;8.618;2024-03-17T10:38:56;94671.50;;;23.62;49.75
71194;BME280;58903;47.210;8.618;2024-03-17T10:42:04;94673.00;;;23.63;49.82
71194;BME280;58903;47.210;8.618;2024-03-17T10:45:06;94674.50;;;23.64;49.66
71194;BME280;58903;47.210;8.618;2024-03-17T10:47:53;94671.75;;;23.64;49.81
71194;BME280;58903;47.210;8.618;2024-03-17T10:53:31;94670.00;;;23.66;50.17
71194;BME280;58903;47.210;8.618;2024-03-17T10:59:11;94665.75;;;23.65;50.01
71194;BME280;58903;47.210;8.618;2024-03-17T11:01:50;94672.53;;;23.70;50.54
71194;BME280;58903;47.210;8.618;2024-03-17T11:04:48;94675.28;;;23.70;50.50
71194;BME280;58903;47.210;8.618;2024-03-17T11:07:25;94684.75;;;23.69;50.09
71194;BME280;58903;47.210;8.618;2024-03-17T11:10:29;94699.50;;;23.71;49.92
71194;BME280;58903;47.210;8.618;2024-03-17T11:13:27;94692.78;;;23.72;49.95
71194;BME280;58903;47.210;8.618;2024-03-17T11:19:41;94701.47;;;23.71;50.37
71194;BME280;58903;47.210;8.618;2024-03-17T11:22:45;94707.72;;;23.71;50.11
71194;BME280;58903;47.210;8.618;2024-03-17T11:31:32;94687.22;;;23.61;50.03
71194;BME280;58903;47.210;8.618;2024-03-17T11:34:02;94699.75;;;23.68;50.85
71194;BME280;58903;47.210;8.618;2024-03-17T11:36:46;94674.97;;;23.57;50.37
71194;BME280;58903;47.210;8.618;2024-03-17T11:43:06;94682.25;;;23.65;50.15
71194;BME280;58903;47.210;8.618;2024-03-17T11:45:54;94680.25;;;23.66;50.57
71194;BME280;58903;47.210;8.618;2024-03-17T11:48:22;94688.50;;;23.66;50.44
71194;BME280;58903;47.210;8.618;2024-03-17T11:50:57;94678.75;;;23.65;50.29
71194;BME280;58903;47.210;8.618;2024-03-17T11:53:38;94686.75;;;23.68;50.77
71194;BME280;58903;47.210;8.618;2024-03-17T11:56:32;94673.50;;;23.67;50.47
71194;BME280;58903;47.210;8.618;2024-03-17T11:59:06;94664.50;;;23.66;50.10
71194;BME280;58903;47.210;8.618;2024-03-17T12:02:09;94654.03;;;23.65;49.88
71194;BME280;58903;47.210;8.618;2024-03-17T12:07:59;94684.22;;;23.65;50.51
71194;BME280;58903;47.210;8.618;2024-03-17T12:10:35;94673.00;;;23.63;50.73
71194;BME280;58903;47.210;8.618;2024-03-17T12:13:23;94688.50;;;23.66;50.75
71194;BME280;58903;47.210;8.618;2024-03-17T12:16:19;94684.50;;;23.67;50.59
71194;BME280;58903;47.210;8.618;2024-03-17T12:19:05;94682.25;;;23.65;50.28
71194;BME280;58903;47.210;8.618;2024-03-17T12:22:06;94688.44;;;23.60;49.02
71194;BME280;58903;47.210;8.618;2024-03-17T12:24:49;94674.38;;;23.47;48.32
71194;BME280;58903;47.210;8.618;2024-03-17T12:27:26;94676.63;;;23.43;49.13
71194;BME280;58903;47.210;8.618;2024-03-17T12:29:54;94676.41;;;23.47;49.77
71194;BME280;58903;47.210;8.618;2024-03-17T12:32:25;94680.41;;;23.51;49.81
71194;BME280;58903;47.210;8.618;2024-03-17T12:34:55;94675.16;;;23.53;49.79
71194;BME280;58903;47.210;8.618;2024-03-17T12:41:30;94664.69;;;23.52;49.52
71194;BME280;58903;47.210;8.618;2024-03-17T12:43:58;94672.16;;;23.51;49.48
71194;BME280;58903;47.210;8.618;2024-03-17T12:46:43;94658.44;;;23.51;49.65
71194;BME280;58903;47.210;8.618;2024-03-17T12:49:18;94660.72;;;23.53;50.06
71194;BME280;58903;47.210;8.618;2024-03-17T12:51:44;94663.72;;;23.55;49.93
71194;BME280;58903;47.210;8.618;2024-03-17T12:54:25;94658.47;;;23.57;50.28
71194;BME280;58903;47.210;8.618;2024-03-17T12:57:11;94655.72;;;23.57;49.72
71194;BME280;58903;47.210;8.618;2024-03-17T13:00:26;94664.72;;;23.57;50.03
71194;BME280;58903;47.210;8.618;2024-03-17T13:03:34;94656.72;;;23.54;49.37
71194;BME280;58903;47.210;8.618;2024-03-17T13:06:22;94662.47;;;23.56;49.57
71194;BME280;58903;47.210;8.618;2024-03-17T13:08:52;94650.00;;;23.55;49.69
71194;BME280;58903;47.210;8.618;2024-03-17T13:11:29;94644.50;;;23.55;49.48
71194;BME280;58903;47.210;8.618;2024-03-17T13:13:55;94640.50;;;23.56;49.54
71194;BME280;58903;47.210;8.618;2024-03-17T13:16:21;94640.50;;;23.56;50.19
71194;BME280;58903;47.210;8.618;2024-03-17T13:18:51;94635.50;;;23.54;50.11
71194;BME280;58903;47.210;8.618;2024-03-17T13:21:18;94609.28;;;23.53;49.85
71194;BME280;58903;47.210;8.618;2024-03-17T13:23:57;94598.28;;;23.53;49.56
71194;BME280;58903;47.210;8.618;2024-03-17T13:30:25;94600.31;;;23.53;49.76
71194;BME280;58903;47.210;8.618;2024-03-17T13:32:55;94599.06;;;23.54;49.50
71194;BME280;58903;47.210;8.618;2024-03-17T13:35:29;94593.31;;;23.52;49.63
71194;BME280;58903;47.210;8.618;2024-03-17T13:37:58;94595.03;;;23.49;49.87
71194;BME280;58903;47.210;8.618;2024-03-17T13:40:28;94594.31;;;23.49;49.78
71194;BME280;58903;47.210;8.618;2024-03-17T13:43:25;94596.56;;;23.56;49.89
71194;BME280;58903;47.210;8.618;2024-03-17T13:45:52;94592.09;;;23.58;51.35
71194;BME280;58903;47.210;8.618;2024-03-17T13:48:32;94590.91;;;23.70;52.12
71194;BME280;58903;47.210;8.618;2024-03-17T13:51:03;94601.94;;;23.87;66.15
71194;BME280;58903;47.210;8.618;2024-03-17T13:53:30;94605.84;;;24.34;70.76
71194;BME280;58903;47.210;8.618;2024-03-17T13:55:56;94595.91;;;24.75;70.10
71194;BME280;58903;47.210;8.618;2024-03-17T13:58:24;94603.66;;;25.04;67.62
71194;BME280;58903;47.210;8.618;2024-03-17T14:00:50;94602.63;;;25.24;58.99
71194;BME280;58903;47.210;8.618;2024-03-17T14:03:18;94592.13;;;25.22;50.40
71194;BME280;58903;47.210;8.618;2024-03-17T14:06:02;94582.84;;;25.25;48.35
71194;BME280;58903;47.210;8.618;2024-03-17T14:08:29;94586.34;;;25.26;48.21
71194;BME280;58903;47.210;8.618;2024-03-17T14:11:04;94563.66;;;25.03;49.68
71194;BME280;58903;47.210;8.618;2024-03-17T14:13:43;94560.88;;;24.59;48.78
71194;BME280;58903;47.210;8.618;2024-03-17T14:16:22;94552.88;;;24.33;49.16
71194;BME280;58903;47.210;8.618;2024-03-17T14:19:08;94542.09;;;24.19;49.35
71194;BME280;58903;47.210;8.618;2024-03-17T14:21:34;94541.34;;;24.07;49.00
71194;BME280;58903;47.210;8.618;2024-03-17T14:24:00;94547.28;;;24.00;49.55
71194;BME280;58903;47.210;8.618;2024-03-17T14:26:29;94552.78;;;23.94;49.52
71194;BME280;58903;47.210;8.618;2024-03-17T14:28:56;94551.75;;;23.86;49.73
71194;BME280;58903;47.210;8.618;2024-03-17T14:31:22;94546.25;;;23.81;49.53
71194;BME280;58903;47.210;8.618;2024-03-17T14:33:48;94555.25;;;23.81;49.36
71194;BME280;58903;47.210;8.618;2024-03-17T14:36:14;94557.25;;;23.81;49.91
71194;BME280;58903;47.210;8.618;2024-03-17T14:39:00;94554.00;;;23.88;49.39
71194;BME280;58903;47.210;8.618;2024-03-17T14:41:34;94553.25;;;23.93;49.18